Time;durP1;ratioP1;P1;durP2;ratioP2;P2;SDS_P1;SDS_P2;PMS_P1;PMS_P2;Temp;Humidity;BMP_temperature;BMP_pressure;BME280_temperature;BME280_humidity;BME280_pressure;Samples;Min_cycle;Max_cycle;Signal;HPM_P1;HPM_P2
2023/09/10 00:01:34;;;;;;;;;13.00;10.00;;;;;29.35;37.05;101247.84;5096870;27;65087;-62
2023/09/10 00:03:59;;;;;;;;;7.67;7.67;;;;;29.33;37.02;101260.88;5084041;27;62006;-62
2023/09/10 00:06:24;;;;;;;;;7.67;7.67;;;;;29.31;36.68;101252.03;5089306;27;63464;-62
2023/09/10 00:08:50;;;;;;;;;12.33;12.33;;;;;29.29;37.09;101248.59;5096476;27;46127;-62
2023/09/10 00:11:15;;;;;;;;;8.00;8.00;;;;;29.27;37.29;101251.53;5096140;27;71623;-62
2023/09/10 00:13:40;;;;;;;;;9.00;7.67;;;;;29.24;36.85;101254.59;5081350;27;71248;-62
2023/09/10 00:16:06;;;;;;;;;7.00;7.00;;;;;29.21;36.56;101255.00;5069058;27;45493;-61
2023/09/10 00:18:32;;;;;;;;;8.00;8.00;;;;;29.20;36.75;101254.16;5096416;27;45592;-61
2023/09/10 00:20:57;;;;;;;;;8.67;8.67;;;;;29.17;37.16;101250.94;5095086;27;62745;-61
2023/09/10 00:23:22;;;;;;;;;8.67;8.33;;;;;29.13;37.47;101261.41;5090915;27;69224;-62
2023/09/10 00:25:48;;;;;;;;;8.00;8.00;;;;;29.10;36.92;101261.81;5089094;27;45429;-61
2023/09/10 00:28:13;;;;;;;;;15.00;8.33;;;;;29.08;36.86;101258.41;5090126;27;68385;-61
2023/09/10 00:30:38;;;;;;;;;10.00;8.33;;;;;29.08;37.06;101254.81;5088974;27;45857;-61
2023/09/10 00:33:04;;;;;;;;;7.67;7.67;;;;;29.07;37.49;101259.44;5093333;27;72033;-61
2023/09/10 00:35:29;;;;;;;;;6.67;6.67;;;;;29.07;36.96;101262.16;5084244;27;67282;-61
2023/09/10 00:37:54;;;;;;;;;9.67;9.00;;;;;29.04;37.07;101251.59;5093105;27;67083;-61
2023/09/10 00:40:20;;;;;;;;;8.33;8.33;;;;;29.03;37.15;101255.38;5078904;27;73173;-61
2023/09/10 00:42:45;;;;;;;;;6.00;6.00;;;;;29.01;37.00;101252.81;5092837;27;50140;-61
2023/09/10 00:45:12;;;;;;;;;8.67;8.67;;;;;29.01;37.33;101254.72;5093087;27;65801;-61
2023/09/10 00:47:41;;;;;;;;;8.67;7.67;;;;;29.00;37.19;101261.22;5095945;27;45500;-61
2023/09/10 00:50:09;;;;;;;;;10.33;8.67;;;;;28.97;37.10;101251.50;5080543;27;46567;-62
2023/09/10 00:52:36;;;;;;;;;10.33;9.00;;;;;28.95;37.64;101258.19;5088162;27;45716;-62
2023/09/10 00:55:01;;;;;;;;;8.00;8.00;;;;;28.92;36.97;101258.59;5068417;27;45505;-62
2023/09/10 00:57:26;;;;;;;;;12.00;10.00;;;;;28.88;37.48;101258.94;5089282;27;68031;-62
2023/09/10 00:59:52;;;;;;;;;13.00;12.67;;;;;28.85;37.61;101263.94;5071218;27;67135;-62
2023/09/10 01:02:18;;;;;;;;;9.67;9.33;;;;;28.81;37.70;101260.75;5067028;27;45383;-62
2023/09/10 01:04:43;;;;;;;;;8.00;8.00;;;;;28.79;37.84;101267.44;5088881;27;45559;-62
2023/09/10 01:07:09;;;;;;;;;11.67;10.33;;;;;28.75;37.66;101264.22;5091689;27;62715;-63
2023/09/10 01:09:34;;;;;;;;;11.67;11.67;;;;;28.73;37.55;101269.00;5077353;28;47817;-62
2023/09/10 01:12:34;;;;;;;;;12.00;9.67;;;;;28.69;37.88;101271.28;5094397;27;71017;-62
2023/09/10 01:15:11;;;;;;;;;9.00;9.00;;;;;28.65;38.18;101275.41;5095163;27;45359;-62
2023/09/10 01:18:00;;;;;;;;;12.33;11.33;;;;;28.63;37.66;101262.91;5092060;27;45346;-64
2023/09/10 01:20:56;;;;;;;;;14.33;11.33;;;;;28.60;38.38;101272.34;5056287;27;46576;-62
2023/09/10 01:23:36;;;;;;;;;14.00;14.00;;;;;28.58;38.30;101268.97;5084061;27;45347;-62
2023/09/10 01:26:02;;;;;;;;;9.00;9.00;;;;;28.55;38.22;101270.19;5076279;27;45395;-62
2023/09/10 01:28:27;;;;;;;;;8.67;8.67;;;;;28.55;38.54;101269.31;5071290;28;45526;-62
2023/09/10 01:30:52;;;;;;;;;10.67;9.00;;;;;28.53;38.48;101266.75;5090449;27;46070;-62
2023/09/10 01:33:35;;;;;;;;;10.33;10.00;;;;;28.49;38.69;101273.66;5071878;27;71415;-61
2023/09/10 01:36:30;;;;;;;;;14.00;11.67;;;;;28.45;38.47;101272.31;5074959;28;45315;-62
2023/09/10 01:39:23;;;;;;;;;11.00;10.00;;;;;28.42;39.21;101280.91;5004383;27;45653;-62
2023/09/10 01:41:49;;;;;;;;;12.00;10.00;;;;;28.38;38.63;101277.66;5081569;27;45432;-62
2023/09/10 01:44:16;;;;;;;;;9.67;9.67;;;;;28.37;39.00;101278.69;5074455;27;70836;-61
2023/09/10 01:46:41;;;;;;;;;12.00;10.00;;;;;28.32;38.56;101275.66;5068060;28;45279;-62
2023/09/10 01:49:08;;;;;;;;;12.00;11.00;;;;;28.29;38.92;101275.16;5067800;27;45388;-62
2023/09/10 01:51:33;;;;;;;;;13.33;11.33;;;;;28.26;38.98;101275.53;5083124;27;46084;-62
2023/09/10 01:53:58;;;;;;;;;12.33;12.33;;;;;28.23;39.18;101269.41;5087478;27;45324;-62
2023/09/10 01:56:24;;;;;;;;;12.33;10.00;;;;;28.23;39.15;101271.28;5071271;27;45252;-62
2023/09/10 01:58:49;;;;;;;;;11.67;9.67;;;;;28.20;39.30;101274.41;5083450;27;45400;-61
2023/09/10 02:01:14;;;;;;;;;11.00;10.33;;;;;28.19;39.04;101276.25;5079000;27;74596;-61
2023/09/10 02:03:40;;;;;;;;;9.00;8.00;;;;;28.18;39.09;101273.72;5093776;27;69949;-61
2023/09/10 02:06:05;;;;;;;;;11.67;10.33;;;;;28.18;39.23;101276.44;5091534;27;68317;-62
2023/09/10 02:08:31;;;;;;;;;10.00;9.33;;;;;28.16;39.29;101271.19;5091485;27;45517;-62
2023/09/10 02:10:56;;;;;;;;;10.00;7.67;;;;;28.14;39.00;101270.50;5098578;27;46124;-61
2023/09/10 02:13:21;;;;;;;;;11.00;11.00;;;;;28.10;39.35;101269.16;5085544;27;69474;-61
2023/09/10 02:15:47;;;;;;;;;13.00;12.00;;;;;28.08;39.25;101265.75;5096458;27;48368;-61
2023/09/10 02:18:12;;;;;;;;;11.00;10.67;;;;;28.08;39.71;101267.63;5085238;27;64839;-62
2023/09/10 02:20:37;;;;;;;;;8.00;8.00;;;;;28.06;39.30;101271.41;5087416;27;72511;-62
2023/09/10 02:23:03;;;;;;;;;7.33;6.67;;;;;28.07;39.21;101277.72;5085628;27;45965;-62
2023/09/10 02:25:29;;;;;;;;;9.00;9.00;;;;;28.04;39.50;101275.34;5087331;27;45292;-61
2023/09/10 02:27:54;;;;;;;;;12.00;8.67;;;;;28.03;39.69;101270.91;5087122;27;45676;-61
2023/09/10 02:30:20;;;;;;;;;9.33;9.33;;;;;27.99;39.82;101275.88;5085411;27;45958;-61
2023/09/10 02:32:45;;;;;;;;;9.00;7.33;;;;;27.98;39.58;101274.16;5094242;27;45658;-61
2023/09/10 02:35:10;;;;;;;;;10.00;8.00;;;;;27.95;39.51;101276.41;5087250;27;45344;-61
2023/09/10 02:37:35;;;;;;;;;8.67;8.00;;;;;27.91;39.64;101273.16;5082753;27;63315;-61
2023/09/10 02:40:01;;;;;;;;;9.67;9.00;;;;;27.91;39.83;101275.91;5088754;27;65077;-62
2023/09/10 02:42:26;;;;;;;;;9.67;9.67;;;;;27.87;39.57;101275.44;5089711;27;45438;-61
2023/09/10 02:44:52;;;;;;;;;10.33;8.67;;;;;27.84;40.20;101275.75;5100123;27;54618;-62
2023/09/10 02:47:17;;;;;;;;;10.00;9.00;;;;;27.83;40.09;101275.94;5099403;27;47394;-62
2023/09/10 02:49:42;;;;;;;;;9.00;8.33;;;;;27.83;40.16;101281.41;5082883;27;45239;-61
2023/09/10 02:52:08;;;;;;;;;7.67;7.67;;;;;27.80;40.04;101271.69;5093723;27;71372;-61
2023/09/10 02:54:34;;;;;;;;;7.00;7.00;;;;;27.82;39.81;101280.56;5087140;27;69067;-61
2023/09/10 02:57:00;;;;;;;;;9.33;7.67;;;;;27.82;39.98;101275.13;5094031;27;45376;-62
2023/09/10 02:59:26;;;;;;;;;7.00;7.00;;;;;27.81;40.17;101278.00;5080546;27;47151;-61
2023/09/10 03:01:52;;;;;;;;;11.33;9.67;;;;;27.81;40.28;101278.00;5101415;27;45405;-62
2023/09/10 03:04:18;;;;;;;;;8.00;8.00;;;;;27.81;40.42;101269.81;5088608;27;45580;-62
2023/09/10 03:06:48;;;;;;;;;7.00;7.00;;;;;27.81;39.95;101269.81;5093564;27;45457;-61
2023/09/10 03:09:14;;;;;;;;;9.00;9.00;;;;;27.80;40.23;101263.50;5090287;27;46180;-61
2023/09/10 03:11:39;;;;;;;;;8.67;7.00;;;;;27.79;40.16;101261.78;5084903;27;45281;-61
2023/09/10 03:14:05;;;;;;;;;13.00;10.00;;;;;27.76;40.21;101261.31;5098251;27;45438;-61
2023/09/10 03:16:32;;;;;;;;;0.00;0.00;;;;;27.72;40.34;101266.28;5096231;27;45794;-61
2023/09/10 03:18:57;;;;;;;;;11.33;10.00;;;;;27.67;40.36;101258.63;5089920;27;46939;-61
2023/09/10 03:21:23;;;;;;;;;9.33;7.33;;;;;27.63;40.38;101251.81;5096096;27;45407;-61
2023/09/10 03:23:48;;;;;;;;;7.00;7.00;;;;;27.59;40.22;101244.13;5082964;27;65202;-61
2023/09/10 03:26:13;;;;;;;;;8.00;7.33;;;;;27.53;40.74;101249.31;5091277;27;69070;-61
2023/09/10 03:28:40;;;;;;;;;8.67;8.67;;;;;27.49;40.81;101253.41;5101129;27;46221;-61
2023/09/10 03:31:06;;;;;;;;;11.33;10.00;;;;;27.46;40.96;101255.66;5094625;27;45486;-61
2023/09/10 03:33:31;;;;;;;;;9.67;9.00;;;;;27.43;41.02;101248.66;5097843;27;45492;-61
2023/09/10 03:35:56;;;;;;;;;10.33;9.33;;;;;27.41;41.27;101247.97;5095673;27;45446;-61
2023/09/10 03:38:22;;;;;;;;;12.67;9.67;;;;;27.38;41.38;101246.47;5100414;27;56220;-61
2023/09/10 03:40:47;;;;;;;;;7.33;7.33;;;;;27.38;40.90;101256.53;5095458;27;71221;-61
2023/09/10 03:43:14;;;;;;;;;8.00;8.00;;;;;27.38;40.92;101248.34;5064443;28;66404;-61
2023/09/10 03:45:40;;;;;;;;;7.67;6.33;;;;;27.39;40.99;101252.75;5091013;27;45690;-61
2023/09/10 03:48:05;;;;;;;;;8.33;8.00;;;;;27.39;40.96;101247.28;5097678;27;46134;-61
2023/09/10 03:50:30;;;;;;;;;8.00;8.00;;;;;27.37;40.79;101252.91;5099339;27;45892;-61
2023/09/10 03:52:56;;;;;;;;;12.00;10.00;;;;;27.36;41.30;101248.47;5079745;27;67744;-61
2023/09/10 03:55:21;;;;;;;;;13.67;11.67;;;;;27.31;41.53;101253.63;5084364;27;66661;-61
2023/09/10 03:57:46;;;;;;;;;10.33;10.33;;;;;27.27;41.69;101243.22;5097380;27;65389;-61
2023/09/10 04:00:12;;;;;;;;;12.00;11.00;;;;;27.19;41.77;101253.13;5099275;27;45503;-61
2023/09/10 04:02:37;;;;;;;;;8.33;7.67;;;;;27.14;41.63;101241.91;5089398;27;45295;-61
2023/09/10 04:05:03;;;;;;;;;13.00;13.00;;;;;27.10;42.04;101253.34;5076099;27;45400;-61
2023/09/10 04:07:29;;;;;;;;;12.67;11.33;;;;;27.06;42.05;101258.31;5081970;27;45482;-61
2023/09/10 04:09:54;;;;;;;;;10.67;10.67;;;;;27.02;42.02;101243.31;5087023;27;45475;-61
2023/09/10 04:12:20;;;;;;;;;13.00;11.00;;;;;26.99;42.39;101249.13;5092796;27;62902;-62
2023/09/10 04:14:45;;;;;;;;;13.00;13.00;;;;;26.94;42.54;101244.19;5091733;27;64257;-62
2023/09/10 04:17:15;;;;;;;;;14.67;12.33;;;;;26.91;42.63;101248.09;5098859;27;58353;-61
2023/09/10 04:19:41;;;;;;;;;13.67;13.67;;;;;26.88;42.96;101250.31;5087234;27;45470;-61
2023/09/10 04:22:07;;;;;;;;;14.33;11.00;;;;;26.83;42.84;101239.06;5089400;27;65817;-62
2023/09/10 04:24:33;;;;;;;;;13.67;13.00;;;;;26.81;42.81;101249.31;5076288;27;45392;-61
2023/09/10 04:26:58;;;;;;;;;16.00;12.33;;;;;26.77;43.38;101251.53;5091857;27;46191;-61
2023/09/10 04:29:24;;;;;;;;;15.00;13.67;;;;;26.74;43.06;101250.00;5083608;27;45267;-61
2023/09/10 04:31:50;;;;;;;;;11.00;10.67;;;;;26.73;43.29;101250.19;5090432;27;45475;-61
2023/09/10 04:34:15;;;;;;;;;12.33;12.33;;;;;26.70;42.95;101245.03;5091659;27;45248;-62
2023/09/10 04:36:41;;;;;;;;;10.33;10.33;;;;;26.66;43.41;101249.13;5087579;27;75521;-62
2023/09/10 04:39:09;;;;;;;;;13.67;12.00;;;;;26.64;43.05;101243.84;5088822;27;45385;-62
2023/09/10 04:41:35;;;;;;;;;14.33;13.00;;;;;26.65;43.71;101242.84;5088607;27;45538;-62
2023/09/10 04:44:01;;;;;;;;;13.33;13.33;;;;;26.63;44.18;101244.88;5082126;27;45445;-62
2023/09/10 04:46:27;;;;;;;;;12.00;12.00;;;;;26.62;43.57;101247.78;5068061;28;45620;-62
2023/09/10 04:48:53;;;;;;;;;11.67;10.67;;;;;26.61;43.34;101252.38;5090153;27;67108;-62
2023/09/10 04:51:18;;;;;;;;;13.33;12.00;;;;;26.61;43.37;101251.50;5095067;27;45477;-62
2023/09/10 04:53:44;;;;;;;;;6.67;6.67;;;;;26.61;43.79;101254.25;5082802;27;64093;-62
2023/09/10 04:56:10;;;;;;;;;13.00;10.67;;;;;26.62;43.73;101250.50;5090003;27;46284;-62
2023/09/10 04:58:35;;;;;;;;;13.00;10.00;;;;;26.61;43.56;101255.13;5086408;27;45312;-62
2023/09/10 05:01:00;;;;;;;;;13.67;10.00;;;;;26.61;43.49;101248.78;5096120;27;66504;-61
2023/09/10 05:03:26;;;;;;;;;10.67;10.67;;;;;26.61;44.03;101248.78;5066103;27;60985;-61
2023/09/10 05:05:58;;;;;;;;;11.67;10.67;;;;;26.58;43.66;101244.53;5096015;27;68272;-61
2023/09/10 05:08:24;;;;;;;;;13.67;13.67;;;;;26.56;43.72;101247.44;5095426;27;45410;-61
2023/09/10 05:10:49;;;;;;;;;12.00;11.67;;;;;26.53;44.46;101253.25;5088854;27;46432;-61
2023/09/10 05:13:14;;;;;;;;;14.00;13.00;;;;;26.50;43.73;101255.44;5085127;27;45523;-62
2023/09/10 05:15:41;;;;;;;;;11.33;10.33;;;;;26.48;44.14;101258.34;5095493;27;75329;-62
2023/09/10 05:18:06;;;;;;;;;10.33;10.00;;;;;26.46;43.96;101257.66;5083298;27;45351;-62
2023/09/10 05:20:32;;;;;;;;;12.33;11.00;;;;;26.45;43.99;101255.13;5098447;27;65296;-61
2023/09/10 05:22:58;;;;;;;;;12.67;10.33;;;;;26.40;44.39;101256.47;5090683;27;47933;-62
2023/09/10 05:25:23;;;;;;;;;12.00;10.33;;;;;26.38;44.49;101260.41;5095746;27;45374;-61
2023/09/10 05:27:48;;;;;;;;;13.33;11.00;;;;;26.37;44.15;101261.41;5091229;27;73068;-61
2023/09/10 05:30:14;;;;;;;;;13.00;13.00;;;;;26.36;44.56;101263.31;5080585;27;60276;-61
2023/09/10 05:32:39;;;;;;;;;12.00;11.33;;;;;26.36;44.99;101252.41;5083849;27;45484;-61
2023/09/10 05:35:04;;;;;;;;;12.00;12.00;;;;;26.36;44.62;101251.53;5091195;27;73324;-61
2023/09/10 05:37:30;;;;;;;;;12.67;11.67;;;;;26.38;44.95;101253.06;5099164;27;45144;-61
2023/09/10 05:39:55;;;;;;;;;12.00;10.00;;;;;26.38;44.98;101249.50;5090959;27;67951;-61
2023/09/10 05:42:20;;;;;;;;;13.33;13.00;;;;;26.40;44.64;101247.47;5087077;27;45700;-61
2023/09/10 05:44:46;;;;;;;;;13.00;13.00;;;;;26.40;44.92;101261.09;5097287;27;45508;-62
2023/09/10 05:47:11;;;;;;;;;11.67;11.67;;;;;26.40;44.69;101253.75;5074341;27;72686;-61
2023/09/10 05:49:37;;;;;;;;;14.00;12.33;;;;;26.43;44.46;101263.47;5069352;28;45574;-61
2023/09/10 05:52:03;;;;;;;;;16.00;13.00;;;;;26.45;44.54;101258.69;5085278;27;45454;-61
2023/09/10 05:54:29;;;;;;;;;13.00;11.67;;;;;26.47;44.68;101258.53;5098756;27;45417;-61
2023/09/10 05:56:54;;;;;;;;;12.00;10.67;;;;;26.48;44.85;101261.09;5090987;27;70083;-61
2023/09/10 05:59:19;;;;;;;;;12.33;12.33;;;;;26.50;44.39;101271.81;5076270;28;45425;-61
2023/09/10 06:01:45;;;;;;;;;10.33;9.67;;;;;26.50;44.93;101271.81;5085605;27;68207;-61
2023/09/10 06:04:10;;;;;;;;;8.67;7.00;;;;;26.54;44.55;101270.44;5087536;27;72872;-61
2023/09/10 06:06:35;;;;;;;;;10.67;10.67;;;;;26.57;44.37;101270.13;5087821;27;45406;-61
2023/09/10 06:09:01;;;;;;;;;13.33;12.33;;;;;26.64;44.14;101273.84;5092733;27;64761;-61
2023/09/10 06:11:27;;;;;;;;;11.33;10.67;;;;;26.71;44.50;101277.63;5090959;27;45280;-61
2023/09/10 06:13:52;;;;;;;;;10.00;10.00;;;;;26.79;44.43;101273.19;5098322;27;45366;-61
2023/09/10 06:16:17;;;;;;;;;11.67;11.00;;;;;26.86;44.61;101268.75;5095283;27;66139;-61
2023/09/10 06:18:43;;;;;;;;;9.67;9.67;;;;;26.92;43.94;101273.50;5077735;28;65167;-61
2023/09/10 06:21:08;;;;;;;;;13.00;11.00;;;;;26.99;44.35;101279.16;5086347;27;45410;-62
2023/09/10 06:23:33;;;;;;;;;13.00;12.33;;;;;27.08;44.12;101286.28;5089011;27;46057;-61
2023/09/10 06:25:59;;;;;;;;;12.00;10.00;;;;;27.37;43.51;101282.09;5098916;27;65698;-61
2023/09/10 06:28:25;;;;;;;;;9.00;9.00;;;;;28.86;43.22;101277.47;5075753;28;68194;-62
2023/09/10 06:30:51;;;;;;;;;10.67;10.67;;;;;30.91;40.93;101273.94;5088453;27;45409;-62
2023/09/10 06:33:16;;;;;;;;;15.00;10.00;;;;;32.80;38.24;101278.06;5092519;27;46286;-61
2023/09/10 06:35:42;;;;;;;;;10.67;10.67;;;;;34.49;35.67;101278.25;5097218;27;45456;-61
2023/09/10 06:38:08;;;;;;;;;4.00;4.00;;;;;35.84;33.20;101275.72;5090694;27;65828;-61
2023/09/10 06:40:36;;;;;;;;;9.33;9.33;;;;;36.98;32.09;101285.91;5087262;27;45399;-61
2023/09/10 06:43:03;;;;;;;;;15.00;13.00;;;;;37.96;29.70;101276.03;5093409;27;46928;-61
2023/09/10 06:45:29;;;;;;;;;9.33;9.33;;;;;38.84;29.36;101276.47;5092644;27;45228;-61
2023/09/10 06:47:54;;;;;;;;;10.33;10.33;;;;;39.64;28.75;101286.44;5084949;27;45415;-61
2023/09/10 06:50:19;;;;;;;;;11.00;9.33;;;;;40.37;27.01;101288.03;5092429;27;70636;-61
2023/09/10 06:52:45;;;;;;;;;11.67;11.33;;;;;41.00;26.37;101277.94;5083111;27;72413;-62
2023/09/10 06:55:10;;;;;;;;;8.67;8.67;;;;;41.65;25.35;101277.66;5086713;27;70987;-62
2023/09/10 06:57:35;;;;;;;;;11.67;11.67;;;;;42.26;24.44;101280.91;5095227;27;65128;-61
2023/09/10 07:00:01;;;;;;;;;10.33;9.00;;;;;42.69;23.67;101280.63;5096736;27;69352;-62
2023/09/10 07:02:26;;;;;;;;;12.00;11.67;;;;;43.23;23.19;101285.50;5091545;27;47256;-62
2023/09/10 07:04:52;;;;;;;;;9.00;9.00;;;;;42.74;22.47;101281.44;5087247;27;45413;-61
2023/09/10 07:07:17;;;;;;;;;10.00;8.00;;;;;40.74;22.80;101288.06;5101283;27;45928;-62
2023/09/10 07:09:42;;;;;;;;;8.33;8.33;;;;;38.69;25.52;101281.75;5087164;27;60750;-62
2023/09/10 07:12:08;;;;;;;;;8.00;8.00;;;;;37.04;26.65;101287.72;5092566;27;47293;-62
2023/09/10 07:14:34;;;;;;;;;10.00;8.67;;;;;35.70;27.63;101295.28;5097604;27;45691;-62
2023/09/10 07:16:59;;;;;;;;;11.33;11.33;;;;;34.62;28.99;101291.94;5094503;27;45343;-62
2023/09/10 07:19:25;;;;;;;;;11.00;11.00;;;;;33.84;30.32;101293.06;5083149;27;66792;-62
2023/09/10 07:21:50;;;;;;;;;11.00;9.33;;;;;33.20;31.32;101285.38;5081776;27;75418;-61
2023/09/10 07:24:15;;;;;;;;;11.00;10.67;;;;;32.70;31.47;101287.75;5088940;27;69174;-62
2023/09/10 07:26:41;;;;;;;;;10.67;9.33;;;;;32.29;32.16;101293.25;5090643;27;45279;-61
2023/09/10 07:29:07;;;;;;;;;12.33;11.00;;;;;31.96;33.02;101302.22;5075714;27;45423;-62
2023/09/10 07:31:33;;;;;;;;;10.33;9.33;;;;;31.65;33.77;101303.63;5091997;27;45596;-62
2023/09/10 07:33:59;;;;;;;;;10.67;8.67;;;;;31.41;34.22;101298.59;5085467;27;45659;-62
2023/09/10 07:36:25;;;;;;;;;12.00;11.67;;;;;31.22;34.35;101306.50;5090152;27;45407;-61
2023/09/10 07:38:50;;;;;;;;;11.00;10.00;;;;;31.10;34.49;101308.13;5091209;27;47860;-61
2023/09/10 07:41:15;;;;;;;;;11.33;9.67;;;;;31.00;33.96;101306.56;5091410;27;45618;-61
2023/09/10 07:43:41;;;;;;;;;8.67;8.00;;;;;30.89;33.95;101309.84;5093438;27;63238;-61
2023/09/10 07:46:06;;;;;;;;;8.67;8.67;;;;;30.82;34.79;101304.31;5083675;27;67126;-61
2023/09/10 07:48:32;;;;;;;;;10.00;9.00;;;;;30.74;34.42;101309.09;5084325;27;66364;-61
2023/09/10 07:50:58;;;;;;;;;10.67;9.67;;;;;30.64;34.54;101306.69;5091163;27;72424;-65
2023/09/10 07:53:24;;;;;;;;;8.33;8.00;;;;;30.58;34.66;101307.47;5098981;27;45467;-61
2023/09/10 07:55:49;;;;;;;;;9.00;8.00;;;;;30.56;34.78;101309.56;5093546;27;45438;-61
2023/09/10 07:58:14;;;;;;;;;10.00;9.67;;;;;30.50;34.27;101302.97;5086992;27;45403;-61
2023/09/10 08:00:40;;;;;;;;;9.33;8.00;;;;;30.47;34.91;101303.38;5085504;27;74454;-61
2023/09/10 08:03:06;;;;;;;;;9.67;8.33;;;;;30.45;34.55;101303.53;5089439;27;45572;-61
2023/09/10 08:05:33;;;;;;;;;8.33;8.00;;;;;30.44;34.83;101300.97;5083281;27;45383;-61
2023/09/10 08:08:02;;;;;;;;;8.00;8.00;;;;;30.45;34.90;101303.53;5089291;27;45402;-61
2023/09/10 08:10:32;;;;;;;;;7.67;7.67;;;;;30.42;34.33;101306.66;5090826;27;47043;-60
2023/09/10 08:12:57;;;;;;;;;10.33;9.00;;;;;30.42;34.18;101300.34;5090913;27;45376;-61
2023/09/10 08:15:23;;;;;;;;;9.00;9.00;;;;;30.39;34.82;101289.75;5078886;27;45788;-61
2023/09/10 08:17:50;;;;;;;;;11.00;10.33;;;;;30.39;34.70;101293.34;5097617;27;45444;-61
2023/09/10 08:20:15;;;;;;;;;4.33;4.33;;;;;30.36;34.01;101296.47;5077010;27;45466;-60
2023/09/10 08:22:42;;;;;;;;;9.33;8.00;;;;;30.35;34.81;101300.25;5086026;27;45553;-61
2023/09/10 08:25:08;;;;;;;;;9.00;9.00;;;;;30.36;34.19;101296.47;5088598;27;47121;-61
2023/09/10 08:27:35;;;;;;;;;8.67;6.00;;;;;30.37;34.93;101292.69;5080301;27;45374;-61
2023/09/10 08:30:01;;;;;;;;;8.00;8.00;;;;;30.43;35.00;101288.31;5081817;27;45407;-61
2023/09/10 08:32:27;;;;;;;;;8.25;7.25;;;;;30.48;34.72;101288.59;5083140;27;45420;-62
2023/09/10 08:34:53;;;;;;;;;7.00;6.25;;;;;30.52;34.49;101290.75;5096150;27;45445;-62
2023/09/10 08:37:18;;;;;;;;;9.67;9.33;;;;;30.53;34.67;101288.84;5083616;27;61070;-62
2023/09/10 08:39:45;;;;;;;;;11.67;7.33;;;;;30.52;34.79;101296.25;5083647;27;48215;-62
2023/09/10 08:42:53;;;;;;;;;7.50;7.50;;;;;30.56;34.05;101290.34;5092127;27;45844;-62
2023/09/10 08:45:18;;;;;;;;;6.00;6.00;;;;;30.59;34.14;101292.72;5062792;27;45479;-63
2023/09/10 08:47:47;;;;;;;;;7.00;6.33;;;;;30.59;34.41;101292.72;5099081;27;45487;-62
2023/09/10 08:50:13;;;;;;;;;10.00;7.67;;;;;30.62;33.32;101290.41;5068877;27;47862;-62
2023/09/10 08:52:40;;;;;;;;;7.33;7.00;;;;;30.64;33.78;101293.81;5082684;27;45685;-62
2023/09/10 08:55:07;;;;;;;;;11.33;9.33;;;;;30.72;33.66;101287.34;5072626;28;45556;-62
2023/09/10 08:57:33;;;;;;;;;8.00;8.00;;;;;30.84;33.69;101287.63;5070102;27;45591;-62
2023/09/10 09:00:00;;;;;;;;;10.00;9.00;;;;;31.08;33.61;101280.88;5089029;27;46590;-62
2023/09/10 09:02:25;;;;;;;;;7.67;6.67;;;;;32.19;32.25;101278.19;5085379;27;50731;-62
2023/09/10 09:04:50;;;;;;;;;8.00;7.00;;;;;34.03;30.06;101280.22;5079374;27;45910;-63
2023/09/10 09:07:19;;;;;;;;;7.00;7.00;;;;;35.68;29.60;101278.06;5092935;27;69325;-63
2023/09/10 09:09:45;;;;;;;;;9.33;7.67;;;;;36.05;26.91;101277.16;5086263;27;47238;-63
2023/09/10 09:12:11;;;;;;;;;6.33;6.33;;;;;35.56;28.45;101278.00;5069943;27;73465;-63
2023/09/10 09:14:42;;;;;;;;;8.67;7.67;;;;;35.04;28.25;101272.84;5073447;27;45397;-63
2023/09/10 09:17:11;;;;;;;;;10.67;9.00;;;;;35.29;28.46;101269.16;5068943;27;45590;-64
2023/09/10 09:19:37;;;;;;;;;9.00;9.00;;;;;36.29;26.61;101277.25;5087313;27;46086;-63
2023/09/10 09:22:05;;;;;;;;;11.00;10.00;;;;;37.56;27.69;101273.03;5090032;27;71809;-63
2023/09/10 09:24:31;;;;;;;;;8.25;7.75;;;;;39.00;25.93;101268.34;5090245;27;45454;-64
2023/09/10 09:26:58;;;;;;;;;12.67;11.33;;;;;40.42;25.41;101274.13;5091901;27;45686;-57
2023/09/10 09:29:23;;;;;;;;;9.33;9.33;;;;;41.38;23.19;101263.03;5070438;27;73970;-58
2023/09/10 09:31:48;;;;;;;;;9.67;9.00;;;;;42.11;22.20;101259.34;5085084;27;45279;-57
2023/09/10 09:34:14;;;;;;;;;9.50;6.75;;;;;42.88;21.83;101261.25;5088959;27;69098;-57
2023/09/10 09:36:39;;;;;;;;;12.67;9.00;;;;;43.61;20.51;101255.13;5079154;27;58929;-57
2023/09/10 09:39:07;;;;;;;;;6.25;6.25;;;;;44.28;20.56;101254.63;5082367;27;46035;-57
2023/09/10 09:41:34;;;;;;;;;7.67;7.67;;;;;44.89;19.83;101252.38;5086743;27;45405;-57
2023/09/10 09:43:59;;;;;;;;;9.33;9.33;;;;;45.43;19.66;101253.09;5091945;27;45484;-57
2023/09/10 09:46:31;;;;;;;;;7.33;7.33;;;;;45.88;18.97;101246.28;5070512;27;63163;-57
2023/09/10 09:48:56;;;;;;;;;11.33;10.00;;;;;46.14;17.72;101248.69;5092726;27;45555;-58
2023/09/10 09:51:21;;;;;;;;;8.67;8.67;;;;;46.28;18.18;101240.34;5096375;27;66153;-58
2023/09/10 09:53:47;;;;;;;;;10.67;9.67;;;;;46.45;17.30;101240.56;5062009;27;65232;-57
2023/09/10 09:56:16;;;;;;;;;10.00;9.00;;;;;46.66;17.61;101245.81;5054552;28;61122;-58
2023/09/10 09:58:44;;;;;;;;;9.33;9.00;;;;;46.84;17.60;101239.28;5093115;27;47030;-58
2023/09/10 10:01:09;;;;;;;;;11.33;10.00;;;;;46.87;17.29;101238.66;5098697;27;45298;-58
2023/09/10 10:03:35;;;;;;;;;7.00;7.00;;;;;46.96;17.54;101238.75;5091720;27;45338;-58
2023/09/10 10:06:01;;;;;;;;;10.33;10.33;;;;;47.02;17.25;101243.13;5076159;27;45296;-58
2023/09/10 10:08:31;;;;;;;;;10.00;10.00;;;;;47.10;17.65;101237.94;5095960;27;46476;-58
2023/09/10 10:10:57;;;;;;;;;10.67;10.00;;;;;47.14;16.45;101242.63;5087632;27;45332;-57
2023/09/10 10:13:24;;;;;;;;;11.67;10.67;;;;;47.15;17.16;101233.03;5079711;27;45410;-58
2023/09/10 10:15:51;;;;;;;;;9.33;9.33;;;;;47.10;16.49;101238.78;5090190;27;45592;-58
2023/09/10 10:18:18;;;;;;;;;11.67;9.33;;;;;46.87;16.58;101237.81;5093285;27;45563;-58
2023/09/10 10:20:49;;;;;;;;;7.67;7.67;;;;;46.76;17.19;101236.38;5080179;27;45939;-58
2023/09/10 10:23:18;;;;;;;;;11.00;10.00;;;;;46.74;16.71;101233.84;5080217;27;45375;-58
2023/09/10 10:25:44;;;;;;;;;11.00;10.33;;;;;46.71;16.84;101228.88;5092312;27;45489;-58
2023/09/10 10:28:11;;;;;;;;;10.33;10.33;;;;;46.70;17.35;101224.38;5090188;27;46117;-58
2023/09/10 10:30:46;;;;;;;;;9.33;9.33;;;;;46.44;16.98;101227.66;5080221;27;45512;-58
2023/09/10 10:33:12;;;;;;;;;13.00;12.33;;;;;46.20;17.24;101231.44;5070183;27;45437;-58
2023/09/10 10:35:43;;;;;;;;;10.00;9.00;;;;;45.90;17.82;101221.56;5073551;27;63648;-58
2023/09/10 10:38:09;;;;;;;;;10.33;9.33;;;;;45.74;17.20;101224.59;5079017;27;46384;-58
2023/09/10 10:40:43;;;;;;;;;10.33;10.33;;;;;45.65;17.42;101220.00;5081423;27;45549;-58
2023/09/10 10:43:15;;;;;;;;;10.67;10.33;;;;;45.56;17.18;101217.84;5086869;27;45538;-58
2023/09/10 10:45:43;;;;;;;;;8.00;6.00;;;;;45.40;17.30;101213.59;5065559;27;45539;-58
2023/09/10 10:48:16;;;;;;;;;10.67;9.00;;;;;45.34;17.85;101215.63;5083329;27;46116;-58
2023/09/10 10:50:44;;;;;;;;;9.67;9.67;;;;;44.98;17.35;101204.88;5085611;27;45377;-58
2023/09/10 10:53:23;;;;;;;;;12.33;10.33;;;;;44.63;18.24;101211.72;5061973;27;45438;-58
2023/09/10 10:55:51;;;;;;;;;10.33;9.00;;;;;44.61;17.64;101201.63;5080880;27;45324;-58
2023/09/10 10:58:18;;;;;;;;;13.33;11.00;;;;;44.73;17.89;101203.22;5080744;27;45449;-58
2023/09/10 11:00:47;;;;;;;;;12.00;9.67;;;;;44.87;18.57;101195.75;5070374;28;45316;-58
2023/09/10 11:03:14;;;;;;;;;10.67;10.67;;;;;44.71;17.50;101185.88;5081642;27;45588;-58
2023/09/10 11:05:52;;;;;;;;;13.00;13.00;;;;;44.72;18.07;101185.56;5091308;27;45491;-58
2023/09/10 11:08:28;;;;;;;;;11.00;11.00;;;;;44.60;18.00;101197.16;5078344;27;48191;-58
2023/09/10 11:10:54;;;;;;;;;11.33;10.33;;;;;44.33;18.56;101192.13;5095943;27;45424;-58
2023/09/10 11:13:19;;;;;;;;;12.00;11.00;;;;;44.31;18.00;101191.59;5094443;27;66646;-57
2023/09/10 11:16:03;;;;;;;;;11.00;11.00;;;;;44.25;18.46;101190.78;5094247;27;59628;-57